sensor_id;sensor_type;location;lat;lon;timestamp;pressure;altitude;pressure_sealevel;temperature;humidity
9893;BME280;4985;49.092;8.542;2024-01-11T00:02:19;100379.94;;;11.45;49.21
9893;BME280;4985;49.092;8.542;2024-01-11T00:04:45;100377.31;;;11.45;49.20
9893;BME280;4985;49.092;8.542;2024-01-11T00:07:10;100372.03;;;11.45;49.37
9893;BME280;4985;49.092;8.542;2024-01-11T00:09:40;100374.78;;;11.44;49.39
9893;BME280;4985;49.092;8.542;2024-01-11T00:12:06;100375.66;;;11.44;49.59
9893;BME280;4985;49.092;8.542;2024-01-11T00:14:32;100387.03;;;11.45;49.46
9893;BME280;4985;49.092;8.542;2024-01-11T00:16:57;100386.19;;;11.44;49.49
9893;BME280;4985;49.092;8.542;2024-01-11T00:19:22;100385.34;;;11.44;49.37
9893;BME280;4985;49.092;8.542;2024-01-11T00:21:48;100398.53;;;11.44;49.34
9893;BME280;4985;49.092;8.542;2024-01-11T00:24:13;100387.97;;;11.44;49.29
9893;BME280;4985;49.092;8.542;2024-01-11T00:26:39;100393.38;;;11.42;49.36
9893;BME280;4985;49.092;8.542;2024-01-11T00:29:04;100402.97;;;11.43;49.25
9893;BME280;4985;49.092;8.542;2024-01-11T00:31:29;100396.84;;;11.43;49.27
9893;BME280;4985;49.092;8.542;2024-01-11T00:33:55;100389.78;;;11.43;49.12
9893;BME280;4985;49.092;8.542;2024-01-11T00:36:20;100385.47;;;11.42;49.34
9893;BME280;4985;49.092;8.542;2024-01-11T00:38:46;100384.66;;;11.42;49.47
9893;BME280;4985;49.092;8.542;2024-01-11T00:41:11;100389.78;;;11.43;49.34
9893;BME280;4985;49.092;8.542;2024-01-11T00:43:36;100388.13;;;11.42;49.10
9893;BME280;4985;49.092;8.542;2024-01-11T00:46:02;100393.38;;;11.42;49.20
9893;BME280;4985;49.092;8.542;2024-01-11T00:48:27;100386.47;;;11.41;49.27
9893;BME280;4985;49.092;8.542;2024-01-11T00:50:53;100397.00;;;11.41;49.17
9893;BME280;4985;49.092;8.542;2024-01-11T00:53:18;100395.19;;;11.42;49.24
9893;BME280;4985;49.092;8.542;2024-01-11T00:55:43;100389.09;;;11.41;49.46
9893;BME280;4985;49.092;8.542;2024-01-11T00:58:09;100398.81;;;11.41;49.38
9893;BME280;4985;49.092;8.542;2024-01-11T01:00:34;100396.16;;;11.41;49.24
9893;BME280;4985;49.092;8.542;2024-01-11T01:02:59;100401.44;;;11.41;49.42
9893;BME280;4985;49.092;8.542;2024-01-11T01:05:25;100395.34;;;11.40;49.26
9893;BME280;4985;49.092;8.542;2024-01-11T01:07:50;100385.63;;;11.41;49.43
9893;BME280;4985;49.092;8.542;2024-01-11T01:10:15;100390.06;;;11.40;49.31
9893;BME280;4985;49.092;8.542;2024-01-11T01:12:41;100392.69;;;11.40;49.30
9893;BME280;4985;49.092;8.542;2024-01-11T01:15:06;100394.50;;;11.40;49.36
9893;BME280;4985;49.092;8.542;2024-01-11T01:17:32;100397.28;;;11.38;49.35
9893;BME280;4985;49.092;8.542;2024-01-11T01:19:57;100398.13;;;11.38;49.31
9893;BME280;4985;49.092;8.542;2024-01-11T01:22:23;100398.13;;;11.38;49.42
9893;BME280;4985;49.092;8.542;2024-01-11T01:24:48;100405.88;;;11.40;49.17
9893;BME280;4985;49.092;8.542;2024-01-11T01:27:13;100404.22;;;11.39;49.42
9893;BME280;4985;49.092;8.542;2024-01-11T01:29:39;100403.41;;;11.38;49.17
9893;BME280;4985;49.092;8.542;2024-01-11T01:32:04;100408.81;;;11.37;49.17
9893;BME280;4985;49.092;8.542;2024-01-11T01:34:30;100413.94;;;11.38;49.19
9893;BME280;4985;49.092;8.542;2024-01-11T01:36:55;100416.72;;;11.37;49.26
9893;BME280;4985;49.092;8.542;2024-01-11T01:39:20;100417.56;;;11.37;49.52
9893;BME280;4985;49.092;8.542;2024-01-11T01:41:46;100422.00;;;11.37;49.49
9893;BME280;4985;49.092;8.542;2024-01-11T01:44:11;100427.28;;;11.37;49.33
9893;BME280;4985;49.092;8.542;2024-01-11T01:46:37;100425.59;;;11.36;49.45
9893;BME280;4985;49.092;8.542;2024-01-11T01:49:03;100432.53;;;11.37;49.43
9893;BME280;4985;49.092;8.542;2024-01-11T01:51:29;100426.44;;;11.36;49.36
9893;BME280;4985;49.092;8.542;2024-01-11T01:53:56;100425.59;;;11.36;49.13
9893;BME280;4985;49.092;8.542;2024-01-11T01:56:22;100426.44;;;11.36;49.26
9893;BME280;4985;49.092;8.542;2024-01-11T01:58:50;100427.41;;;11.35;49.52
9893;BME280;4985;49.092;8.542;2024-01-11T02:01:17;100422.97;;;11.36;49.44
9893;BME280;4985;49.092;8.542;2024-01-11T02:03:45;100429.06;;;11.36;49.34
9893;BME280;4985;49.092;8.542;2024-01-11T02:06:13;100425.59;;;11.36;49.31
9893;BME280;4985;49.092;8.542;2024-01-11T02:08:40;100415.91;;;11.36;49.51
9893;BME280;4985;49.092;8.542;2024-01-11T02:11:07;100425.59;;;11.36;49.18
9893;BME280;4985;49.092;8.542;2024-01-11T02:13:33;100424.78;;;11.35;49.36
9893;BME280;4985;49.092;8.542;2024-01-11T02:15:58;100430.06;;;11.35;49.51
9893;BME280;4985;49.092;8.542;2024-01-11T02:18:24;100430.19;;;11.34;49.45
9893;BME280;4985;49.092;8.542;2024-01-11T02:20:49;100431.84;;;11.35;49.39
9893;BME280;4985;49.092;8.542;2024-01-11T02:23:17;100427.56;;;11.34;49.24
9893;BME280;4985;49.092;8.542;2024-01-11T02:25:44;100427.56;;;11.34;49.22
9893;BME280;4985;49.092;8.542;2024-01-11T02:28:10;100425.03;;;11.32;49.14
9893;BME280;4985;49.092;8.542;2024-01-11T02:30:36;100421.56;;;11.32;49.18
9893;BME280;4985;49.092;8.542;2024-01-11T02:33:02;100421.47;;;11.33;49.13
9893;BME280;4985;49.092;8.542;2024-01-11T02:35:28;100418.81;;;11.33;49.30
9893;BME280;4985;49.092;8.542;2024-01-11T02:37:54;100422.41;;;11.32;49.40
9893;BME280;4985;49.092;8.542;2024-01-11T02:40:20;100427.56;;;11.34;49.34
9893;BME280;4985;49.092;8.542;2024-01-11T02:42:46;100417.13;;;11.32;49.41
9893;BME280;4985;49.092;8.542;2024-01-11T02:45:12;100413.66;;;11.32;49.53
9893;BME280;4985;49.092;8.542;2024-01-11T02:47:38;100415.47;;;11.31;49.29
9893;BME280;4985;49.092;8.542;2024-01-11T02:50:04;100417.28;;;11.31;49.34
9893;BME280;4985;49.092;8.542;2024-01-11T02:52:30;100419.91;;;11.31;49.40
9893;BME280;4985;49.092;8.542;2024-01-11T02:54:55;100418.94;;;11.32;49.46
9893;BME280;4985;49.092;8.542;2024-01-11T02:57:20;100414.63;;;11.31;49.18
9893;BME280;4985;49.092;8.542;2024-01-11T02:59:46;100415.63;;;11.30;49.02
9893;BME280;4985;49.092;8.542;2024-01-11T03:02:11;100416.44;;;11.30;49.29
9893;BME280;4985;49.092;8.542;2024-01-11T03:04:36;100415.63;;;11.30;49.21
9893;BME280;4985;49.092;8.542;2024-01-11T03:07:02;100413.94;;;11.29;49.55
9893;BME280;4985;49.092;8.542;2024-01-11T03:09:27;100413.94;;;11.29;49.07
9893;BME280;4985;49.092;8.542;2024-01-11T03:11:53;100410.47;;;11.28;49.23
9893;BME280;4985;49.092;8.542;2024-01-11T03:14:18;100404.38;;;11.28;49.42
9893;BME280;4985;49.092;8.542;2024-01-11T03:16:43;100406.03;;;11.29;49.13
9893;BME280;4985;49.092;8.542;2024-01-11T03:19:09;100413.13;;;11.28;49.26
9893;BME280;4985;49.092;8.542;2024-01-11T03:21:34;100408.00;;;11.27;49.17
9893;BME280;4985;49.092;8.542;2024-01-11T03:23:59;100407.00;;;11.28;49.20
9893;BME280;4985;49.092;8.542;2024-01-11T03:26:25;100406.19;;;11.27;49.08
9893;BME280;4985;49.092;8.542;2024-01-11T03:28:50;100408.00;;;11.27;49.41
9893;BME280;4985;49.092;8.542;2024-01-11T03:31:16;100405.34;;;11.27;49.34
9893;BME280;4985;49.092;8.542;2024-01-11T03:33:41;100403.69;;;11.26;49.31
9893;BME280;4985;49.092;8.542;2024-01-11T03:36:11;100405.34;;;11.27;49.27
9893;BME280;4985;49.092;8.542;2024-01-11T03:38:37;100408.97;;;11.26;49.07
9893;BME280;4985;49.092;8.542;2024-01-11T03:41:08;100408.97;;;11.26;49.31
9893;BME280;4985;49.092;8.542;2024-01-11T03:43:35;100408.97;;;11.26;49.33
9893;BME280;4985;49.092;8.542;2024-01-11T03:46:00;100404.66;;;11.25;49.38
9893;BME280;4985;49.092;8.542;2024-01-11T03:48:26;100407.31;;;11.25;49.33
9893;BME280;4985;49.092;8.542;2024-01-11T03:50:51;100407.31;;;11.25;49.35
9893;BME280;4985;49.092;8.542;2024-01-11T03:53:17;100402.03;;;11.25;49.17
9893;BME280;4985;49.092;8.542;2024-01-11T03:55:42;100400.38;;;11.24;49.28
9893;BME280;4985;49.092;8.542;2024-01-11T03:58:07;100400.38;;;11.24;49.35
9893;BME280;4985;49.092;8.542;2024-01-11T04:00:33;100400.38;;;11.24;49.25
9893;BME280;4985;49.092;8.542;2024-01-11T04:02:58;100397.72;;;11.24;49.20
9893;BME280;4985;49.092;8.542;2024-01-11T04:05:24;100398.72;;;11.23;49.27
9893;BME280;4985;49.092;8.542;2024-01-11T04:07:49;100400.53;;;11.22;49.30
9893;BME280;4985;49.092;8.542;2024-01-11T04:10:17;100397.06;;;11.22;49.15
9893;BME280;4985;49.092;8.542;2024-01-11T04:12:42;100400.53;;;11.22;49.27
9893;BME280;4985;49.092;8.542;2024-01-11T04:15:08;100386.50;;;11.22;49.32
9893;BME280;4985;49.092;8.542;2024-01-11T04:17:33;100386.63;;;11.20;49.23
9893;BME280;4985;49.092;8.542;2024-01-11T04:19:59;100393.59;;;11.21;49.31
9893;BME280;4985;49.092;8.542;2024-01-11T04:22:24;100398.72;;;11.23;49.10
9893;BME280;4985;49.092;8.542;2024-01-11T04:24:50;100400.63;;;11.21;49.32
9893;BME280;4985;49.092;8.542;2024-01-11T04:27:15;100396.34;;;11.20;49.26
9893;BME280;4985;49.092;8.542;2024-01-11T04:29:41;100398.97;;;11.20;49.24
9893;BME280;4985;49.092;8.542;2024-01-11T04:32:06;100398.97;;;11.20;49.49
9893;BME280;4985;49.092;8.542;2024-01-11T04:34:32;100398.97;;;11.20;49.45
9893;BME280;4985;49.092;8.542;2024-01-11T04:36:57;100396.34;;;11.20;49.33
9893;BME280;4985;49.092;8.542;2024-01-11T04:39:22;100398.28;;;11.18;49.15
9893;BME280;4985;49.092;8.542;2024-01-11T04:41:48;100393.84;;;11.18;49.35
9893;BME280;4985;49.092;8.542;2024-01-11T04:44:13;100403.41;;;11.19;49.46
9893;BME280;4985;49.092;8.542;2024-01-11T04:46:38;100399.09;;;11.18;49.05
9893;BME280;4985;49.092;8.542;2024-01-11T04:49:04;100404.38;;;11.18;49.12
9893;BME280;4985;49.092;8.542;2024-01-11T04:51:29;100411.47;;;11.18;49.13
9893;BME280;4985;49.092;8.542;2024-01-11T04:53:54;100414.09;;;11.18;49.20
9893;BME280;4985;49.092;8.542;2024-01-11T04:56:20;100408.81;;;11.18;49.29
9893;BME280;4985;49.092;8.542;2024-01-11T04:58:45;100412.44;;;11.17;49.30
9893;BME280;4985;49.092;8.542;2024-01-11T05:01:12;100412.44;;;11.17;49.23
9893;BME280;4985;49.092;8.542;2024-01-11T05:03:38;100415.91;;;11.17;49.38
9893;BME280;4985;49.092;8.542;2024-01-11T05:06:03;100415.06;;;11.17;49.13
9893;BME280;4985;49.092;8.542;2024-01-11T05:08:29;100414.25;;;11.16;49.31
9893;BME280;4985;49.092;8.542;2024-01-11T05:10:54;100413.41;;;11.16;49.42
9893;BME280;4985;49.092;8.542;2024-01-11T05:13:20;100422.28;;;11.15;49.45
9893;BME280;4985;49.092;8.542;2024-01-11T05:15:45;100419.66;;;11.15;49.11
9893;BME280;4985;49.092;8.542;2024-01-11T05:18:12;100419.66;;;11.15;49.13
9893;BME280;4985;49.092;8.542;2024-01-11T05:20:38;100417.84;;;11.15;49.23
9893;BME280;4985;49.092;8.542;2024-01-11T05:23:03;100420.47;;;11.15;49.10
9893;BME280;4985;49.092;8.542;2024-01-11T05:25:30;100422.28;;;11.15;49.19
9893;BME280;4985;49.092;8.542;2024-01-11T05:27:59;100431.16;;;11.14;49.09
9893;BME280;4985;49.092;8.542;2024-01-11T05:30:24;100431.16;;;11.14;49.40
9893;BME280;4985;49.092;8.542;2024-01-11T05:32:50;100436.44;;;11.14;49.17
9893;BME280;4985;49.092;8.542;2024-01-11T05:35:15;100440.06;;;11.13;49.27
9893;BME280;4985;49.092;8.542;2024-01-11T05:37:40;100440.06;;;11.13;49.28
9893;BME280;4985;49.092;8.542;2024-01-11T05:40:06;100441.84;;;11.12;49.43
9893;BME280;4985;49.092;8.542;2024-01-11T05:42:33;100437.41;;;11.13;49.35
9893;BME280;4985;49.092;8.542;2024-01-11T05:44:58;100436.59;;;11.12;49.05
9893;BME280;4985;49.092;8.542;2024-01-11T05:47:23;100441.03;;;11.12;49.24
9893;BME280;4985;49.092;8.542;2024-01-11T05:49:49;100451.56;;;11.12;49.19
9893;BME280;4985;49.092;8.542;2024-01-11T05:52:15;100445.56;;;11.09;49.37
9893;BME280;4985;49.092;8.542;2024-01-11T05:54:40;100442.81;;;11.11;49.44
9893;BME280;4985;49.092;8.542;2024-01-11T05:57:05;100453.38;;;11.11;49.42
9893;BME280;4985;49.092;8.542;2024-01-11T05:59:32;100449.06;;;11.10;49.25
9893;BME280;4985;49.092;8.542;2024-01-11T06:01:58;100447.25;;;11.11;49.04
9893;BME280;4985;49.092;8.542;2024-01-11T06:04:26;100452.53;;;11.11;49.25
9893;BME280;4985;49.092;8.542;2024-01-11T06:06:51;100449.19;;;11.08;49.38
9893;BME280;4985;49.092;8.542;2024-01-11T06:09:17;100443.06;;;11.08;49.22
9893;BME280;4985;49.092;8.542;2024-01-11T06:11:42;100450.97;;;11.08;49.10
9893;BME280;4985;49.092;8.542;2024-01-11T06:14:07;100452.78;;;11.07;49.41
9893;BME280;4985;49.092;8.542;2024-01-11T06:16:33;100445.84;;;11.06;49.35
9893;BME280;4985;49.092;8.542;2024-01-11T06:18:58;100451.97;;;11.07;49.22
9893;BME280;4985;49.092;8.542;2024-01-11T06:21:24;100459.88;;;11.07;49.14
9893;BME280;4985;49.092;8.542;2024-01-11T06:23:49;100454.59;;;11.07;49.10
9893;BME280;4985;49.092;8.542;2024-01-11T06:26:14;100438.94;;;11.05;49.38
9893;BME280;4985;49.092;8.542;2024-01-11T06:28:40;100446.84;;;11.05;49.41
9893;BME280;4985;49.092;8.542;2024-01-11T06:31:05;100456.41;;;11.06;49.15
9893;BME280;4985;49.092;8.542;2024-01-11T06:33:31;100466.09;;;11.06;49.37
9893;BME280;4985;49.092;8.542;2024-01-11T06:35:58;100464.44;;;11.05;49.30
9893;BME280;4985;49.092;8.542;2024-01-11T06:38:23;100453.06;;;11.04;49.10
9893;BME280;4985;49.092;8.542;2024-01-11T06:40:49;100450.44;;;11.04;49.34
9893;BME280;4985;49.092;8.542;2024-01-11T06:43:15;100459.31;;;11.03;49.44
9893;BME280;4985;49.092;8.542;2024-01-11T06:45:43;100463.63;;;11.04;49.20
9893;BME280;4985;49.092;8.542;2024-01-11T06:48:08;100468.06;;;11.04;49.37
9893;BME280;4985;49.092;8.542;2024-01-11T06:50:34;100468.06;;;11.04;49.25
9893;BME280;4985;49.092;8.542;2024-01-11T06:53:00;100463.63;;;11.04;49.34
9893;BME280;4985;49.092;8.542;2024-01-11T06:55:25;100455.84;;;11.03;49.20
9893;BME280;4985;49.092;8.542;2024-01-11T06:57:51;100460.28;;;11.02;49.07
9893;BME280;4985;49.092;8.542;2024-01-11T07:00:16;100464.59;;;11.03;49.50
9893;BME280;4985;49.092;8.542;2024-01-11T07:02:41;100470.81;;;11.02;49.08
9893;BME280;4985;49.092;8.542;2024-01-11T07:05:07;100476.09;;;11.02;49.01
9893;BME280;4985;49.092;8.542;2024-01-11T07:07:33;100473.59;;;11.01;49.16
9893;BME280;4985;49.092;8.542;2024-01-11T07:09:58;100493.72;;;11.02;49.21
9893;BME280;4985;49.092;8.542;2024-01-11T07:12:24;100505.22;;;11.01;49.19
9893;BME280;4985;49.092;8.542;2024-01-11T07:14:50;100509.53;;;11.02;49.04
9893;BME280;4985;49.092;8.542;2024-01-11T07:17:16;100510.50;;;11.01;49.18
9893;BME280;4985;49.092;8.542;2024-01-11T07:19:41;100517.56;;;11.00;49.20
9893;BME280;4985;49.092;8.542;2024-01-11T07:22:07;100510.63;;;10.99;49.45
9893;BME280;4985;49.092;8.542;2024-01-11T07:24:32;100513.13;;;11.01;49.34
9893;BME280;4985;49.092;8.542;2024-01-11T07:27:04;100512.44;;;10.99;49.08
9893;BME280;4985;49.092;8.542;2024-01-11T07:29:30;100517.72;;;10.99;49.17
9893;BME280;4985;49.092;8.542;2024-01-11T07:31:55;100524.63;;;11.00;49.06
9893;BME280;4985;49.092;8.542;2024-01-11T07:34:21;100528.25;;;10.99;48.98
9893;BME280;4985;49.092;8.542;2024-01-11T07:36:46;100527.38;;;10.98;49.24
9893;BME280;4985;49.092;8.542;2024-01-11T07:39:12;100542.38;;;10.98;49.25
9893;BME280;4985;49.092;8.542;2024-01-11T07:41:37;100542.38;;;10.98;49.35
9893;BME280;4985;49.092;8.542;2024-01-11T07:44:03;100538.91;;;10.97;49.31
9893;BME280;4985;49.092;8.542;2024-01-11T07:46:28;100539.88;;;10.96;49.41
9893;BME280;4985;49.092;8.542;2024-01-11T07:48:54;100539.88;;;10.96;49.18
9893;BME280;4985;49.092;8.542;2024-01-11T07:51:19;100539.88;;;10.96;49.11
9893;BME280;4985;49.092;8.542;2024-01-11T07:53:45;100554.84;;;10.96;49.33
9893;BME280;4985;49.092;8.542;2024-01-11T07:56:10;100554.97;;;10.94;49.37
9893;BME280;4985;49.092;8.542;2024-01-11T07:58:36;100562.06;;;10.94;49.30
9893;BME280;4985;49.092;8.542;2024-01-11T08:01:03;100573.44;;;10.94;49.18
9893;BME280;4985;49.092;8.542;2024-01-11T08:03:29;100567.31;;;10.94;49.01
9893;BME280;4985;49.092;8.542;2024-01-11T08:05:55;100573.44;;;10.94;49.28
9893;BME280;4985;49.092;8.542;2024-01-11T08:08:20;100577.88;;;10.94;49.12
9893;BME280;4985;49.092;8.542;2024-01-11T08:10:47;100571.75;;;10.93;49.08
9893;BME280;4985;49.092;8.542;2024-01-11T08:13:13;100573.44;;;10.94;49.25
9893;BME280;4985;49.092;8.542;2024-01-11T08:15:39;100577.03;;;10.93;49.17
9893;BME280;4985;49.092;8.542;2024-01-11T08:18:04;100577.03;;;10.93;49.08
9893;BME280;4985;49.092;8.542;2024-01-11T08:20:30;100575.38;;;10.92;49.24
9893;BME280;4985;49.092;8.542;2024-01-11T08:22:55;100582.44;;;10.92;49.13
9893;BME280;4985;49.092;8.542;2024-01-11T08:25:21;100580.63;;;10.92;49.35
9893;BME280;4985;49.092;8.542;2024-01-11T08:27:48;100577.03;;;10.93;49.37
9893;BME280;4985;49.092;8.542;2024-01-11T08:30:13;100584.09;;;10.93;49.23
9893;BME280;4985;49.092;8.542;2024-01-11T08:32:39;100582.16;;;10.95;49.39
9893;BME280;4985;49.092;8.542;2024-01-11T08:35:11;100573.56;;;10.93;49.50
9893;BME280;4985;49.092;8.542;2024-01-11T08:37:37;100570.09;;;10.92;49.28
9893;BME280;4985;49.092;8.542;2024-01-11T08:40:02;100576.34;;;10.91;49.15
9893;BME280;4985;49.092;8.542;2024-01-11T08:42:30;100566.50;;;10.93;49.49
9893;BME280;4985;49.092;8.542;2024-01-11T08:44:55;100568.44;;;10.91;49.15
9893;BME280;4985;49.092;8.542;2024-01-11T08:47:21;100576.19;;;10.93;49.37
9893;BME280;4985;49.092;8.542;2024-01-11T08:49:46;100573.56;;;10.93;49.44
9893;BME280;4985;49.092;8.542;2024-01-11T08:52:11;100572.72;;;10.92;49.29
9893;BME280;4985;49.092;8.542;2024-01-11T08:54:37;100575.38;;;10.92;49.17
9893;BME280;4985;49.092;8.542;2024-01-11T08:57:02;100579.81;;;10.92;49.43
9893;BME280;4985;49.092;8.542;2024-01-11T08:59:28;100575.38;;;10.92;49.36
9893;BME280;4985;49.092;8.542;2024-01-11T09:01:53;100585.06;;;10.92;49.26
9893;BME280;4985;49.092;8.542;2024-01-11T09:04:19;100578.00;;;10.92;49.18
9893;BME280;4985;49.092;8.542;2024-01-11T09:06:44;100582.56;;;10.90;49.05
9893;BME280;4985;49.092;8.542;2024-01-11T09:09:11;100589.50;;;10.91;49.43
9893;BME280;4985;49.092;8.542;2024-01-11T09:11:37;100587.84;;;10.90;49.36
9893;BME280;4985;49.092;8.542;2024-01-11T09:14:02;100587.00;;;10.90;49.14
9893;BME280;4985;49.092;8.542;2024-01-11T09:16:28;100588.69;;;10.91;49.30
9893;BME280;4985;49.092;8.542;2024-01-11T09:18:54;100581.59;;;10.91;49.11
9893;BME280;4985;49.092;8.542;2024-01-11T09:21:19;100578.13;;;10.91;49.12
9893;BME280;4985;49.092;8.542;2024-01-11T09:23:45;100572.03;;;10.90;49.21
9893;BME280;4985;49.092;8.542;2024-01-11T09:26:10;100575.66;;;10.89;49.31
9893;BME280;4985;49.092;8.542;2024-01-11T09:28:35;100583.41;;;10.91;49.28
9893;BME280;4985;49.092;8.542;2024-01-11T09:31:01;100594.91;;;10.90;49.17
9893;BME280;4985;49.092;8.542;2024-01-11T09:33:27;100600.19;;;10.90;49.36
9893;BME280;4985;49.092;8.542;2024-01-11T09:35:54;100596.72;;;10.89;49.40
9893;BME280;4985;49.092;8.542;2024-01-11T09:38:19;100602.00;;;10.89;49.04
9893;BME280;4985;49.092;8.542;2024-01-11T09:40:45;100586.19;;;10.89;49.34
9893;BME280;4985;49.092;8.542;2024-01-11T09:43:10;100582.72;;;10.89;49.29
9893;BME280;4985;49.092;8.542;2024-01-11T09:45:37;100588.81;;;10.89;49.26
9893;BME280;4985;49.092;8.542;2024-01-11T09:48:04;100597.69;;;10.88;49.10
9893;BME280;4985;49.092;8.542;2024-01-11T09:50:31;100598.53;;;10.89;49.14
9893;BME280;4985;49.092;8.542;2024-01-11T09:52:57;100605.59;;;10.88;49.39
9893;BME280;4985;49.092;8.542;2024-01-11T09:55:23;100596.84;;;10.88;49.29
9893;BME280;4985;49.092;8.542;2024-01-11T09:57:52;100603.91;;;10.87;49.30
9893;BME280;4985;49.092;8.542;2024-01-11T10:00:22;100599.50;;;10.88;49.27
9893;BME280;4985;49.092;8.542;2024-01-11T10:02:49;100594.22;;;10.88;49.30
9893;BME280;4985;49.092;8.542;2024-01-11T10:05:16;100585.44;;;10.87;49.42
9893;BME280;4985;49.092;8.542;2024-01-11T10:07:42;100570.63;;;10.86;49.23
9893;BME280;4985;49.092;8.542;2024-01-11T10:10:08;100577.56;;;10.87;49.30
9893;BME280;4985;49.092;8.542;2024-01-11T10:12:37;100574.91;;;10.87;49.24
9893;BME280;4985;49.092;8.542;2024-01-11T10:15:07;100567.88;;;10.88;49.10
9893;BME280;4985;49.092;8.542;2024-01-11T10:17:44;100561.75;;;10.87;49.19
9893;BME280;4985;49.092;8.542;2024-01-11T10:20:11;100573.16;;;10.88;49.26
9893;BME280;4985;49.092;8.542;2024-01-11T10:22:41;100573.97;;;10.88;49.14
9893;BME280;4985;49.092;8.542;2024-01-11T10:27:39;100567.00;;;10.87;49.25
9893;BME280;4985;49.092;8.542;2024-01-11T10:30:07;100575.06;;;10.86;49.27
9893;BME280;4985;49.092;8.542;2024-01-11T10:32:33;100581.16;;;10.86;49.24
9893;BME280;4985;49.092;8.542;2024-01-11T10:35:00;100582.81;;;10.87;49.24
9893;BME280;4985;49.092;8.542;2024-01-11T10:37:27;100575.06;;;10.86;49.28
9893;BME280;4985;49.092;8.542;2024-01-11T10:39:55;100576.84;;;10.85;49.21
9893;BME280;4985;49.092;8.542;2024-01-11T10:42:24;100576.84;;;10.85;49.13
9893;BME280;4985;49.092;8.542;2024-01-11T10:44:54;100577.69;;;10.86;49.11
9893;BME280;4985;49.092;8.542;2024-01-11T10:47:21;100574.22;;;10.85;49.38
9893;BME280;4985;49.092;8.542;2024-01-11T10:49:49;100574.22;;;10.85;49.29
9893;BME280;4985;49.092;8.542;2024-01-11T10:52:20;100584.75;;;10.85;49.05
9893;BME280;4985;49.092;8.542;2024-01-11T10:54:48;100582.13;;;10.85;49.20
9893;BME280;4985;49.092;8.542;2024-01-11T10:57:16;100583.94;;;10.85;49.05
9893;BME280;4985;49.092;8.542;2024-01-11T10:59:41;100579.50;;;10.85;49.22
9893;BME280;4985;49.092;8.542;2024-01-11T11:02:09;100568.13;;;10.85;49.04
9893;BME280;4985;49.092;8.542;2024-01-11T11:04:38;100568.94;;;10.85;49.33
9893;BME280;4985;49.092;8.542;2024-01-11T11:07:05;100574.22;;;10.85;49.19
9893;BME280;4985;49.092;8.542;2024-01-11T11:09:34;100575.06;;;10.86;49.04
9893;BME280;4985;49.092;8.542;2024-01-11T11:12:00;100576.84;;;10.85;49.17
9893;BME280;4985;49.092;8.542;2024-01-11T11:14:27;100569.78;;;10.86;48.99
9893;BME280;4985;49.092;8.542;2024-01-11T11:16:53;100564.50;;;10.86;49.17
9893;BME280;4985;49.092;8.542;2024-01-11T11:19:22;100563.69;;;10.85;49.13
9893;BME280;4985;49.092;8.542;2024-01-11T11:21:48;100559.25;;;10.86;49.14
9893;BME280;4985;49.092;8.542;2024-01-11T11:24:14;100567.16;;;10.86;49.01
9893;BME280;4985;49.092;8.542;2024-01-11T11:26:42;100562.72;;;10.86;49.00
9893;BME280;4985;49.092;8.542;2024-01-11T11:29:08;100568.94;;;10.85;49.26
9893;BME280;4985;49.092;8.542;2024-01-11T11:31:44;100564.50;;;10.86;49.23
9893;BME280;4985;49.092;8.542;2024-01-11T11:34:19;100559.38;;;10.84;49.26
9893;BME280;4985;49.092;8.542;2024-01-11T11:36:50;100541.78;;;10.85;49.03
9893;BME280;4985;49.092;8.542;2024-01-11T11:39:19;100542.59;;;10.85;49.36
9893;BME280;4985;49.092;8.542;2024-01-11T11:41:45;100540.94;;;10.84;49.13
9893;BME280;4985;49.092;8.542;2024-01-11T11:44:12;100540.94;;;10.84;49.12
9893;BME280;4985;49.092;8.542;2024-01-11T11:46:40;100543.44;;;10.86;49.21
9893;BME280;4985;49.092;8.542;2024-01-11T11:49:06;100528.47;;;10.86;49.32
9893;BME280;4985;49.092;8.542;2024-01-11T11:51:32;100542.59;;;10.85;49.00
9893;BME280;4985;49.092;8.542;2024-01-11T11:53:58;100529.44;;;10.85;49.28
9893;BME280;4985;49.092;8.542;2024-01-11T11:56:23;100513.63;;;10.85;49.21
9893;BME280;4985;49.092;8.542;2024-01-11T11:58:50;100508.38;;;10.85;48.99
9893;BME280;4985;49.092;8.542;2024-01-11T12:01:17;100512.66;;;10.86;49.27
9893;BME280;4985;49.092;8.542;2024-01-11T12:03:43;100512.66;;;10.86;49.13
9893;BME280;4985;49.092;8.542;2024-01-11T12:06:15;100515.28;;;10.86;48.97
9893;BME280;4985;49.092;8.542;2024-01-11T12:08:42;100516.03;;;10.88;49.11
9893;BME280;4985;49.092;8.542;2024-01-11T12:11:07;100513.38;;;10.88;49.24
9893;BME280;4985;49.092;8.542;2024-01-11T12:13:33;100499.50;;;10.86;49.21
9893;BME280;4985;49.092;8.542;2024-01-11T12:15:59;100503.78;;;10.87;49.21
9893;BME280;4985;49.092;8.542;2024-01-11T12:18:24;100501.16;;;10.87;49.24
9893;BME280;4985;49.092;8.542;2024-01-11T12:20:51;100503.78;;;10.87;48.96
9893;BME280;4985;49.092;8.542;2024-01-11T12:23:18;100501.16;;;10.87;49.25
9893;BME280;4985;49.092;8.542;2024-01-11T12:25:43;100498.53;;;10.87;49.18
9893;BME280;4985;49.092;8.542;2024-01-11T12:28:09;100506.31;;;10.89;49.14
9893;BME280;4985;49.092;8.542;2024-01-11T12:30:35;100510.75;;;10.88;49.30
9893;BME280;4985;49.092;8.542;2024-01-11T12:33:01;100495.78;;;10.89;49.08
9893;BME280;4985;49.092;8.542;2024-01-11T12:35:27;100509.78;;;10.89;49.15
9893;BME280;4985;49.092;8.542;2024-01-11T12:37:58;100495.78;;;10.89;49.07
9893;BME280;4985;49.092;8.542;2024-01-11T12:40:24;100497.56;;;10.88;49.04
9893;BME280;4985;49.092;8.542;2024-01-11T12:42:49;100492.16;;;10.90;49.06
9893;BME280;4985;49.092;8.542;2024-01-11T12:45:17;100475.53;;;10.89;49.05
9893;BME280;4985;49.092;8.542;2024-01-11T12:47:43;100479.97;;;10.89;49.08
9893;BME280;4985;49.092;8.542;2024-01-11T12:50:09;100485.09;;;10.90;48.92
9893;BME280;4985;49.092;8.542;2024-01-11T12:52:37;100480.81;;;10.89;49.07
9893;BME280;4985;49.092;8.542;2024-01-11T12:55:03;100483.28;;;10.91;49.08
9893;BME280;4985;49.092;8.542;2024-01-11T12:57:29;100475.53;;;10.89;49.08
9893;BME280;4985;49.092;8.542;2024-01-11T13:00:09;100473.59;;;10.91;49.25
9893;BME280;4985;49.092;8.542;2024-01-11T13:02:35;100481.50;;;10.91;48.94
9893;BME280;4985;49.092;8.542;2024-01-11T13:05:00;100479.81;;;10.90;48.93
9893;BME280;4985;49.092;8.542;2024-01-11T13:07:27;100483.28;;;10.91;49.11